Time;durP1;ratioP1;P1;durP2;ratioP2;P2;SDS_P1;SDS_P2;PMS_P1;PMS_P2;Temp;Humidity;BMP_temperature;BMP_pressure;BME280_temperature;BME280_humidity;BME280_pressure;Samples;Min_cycle;Max_cycle;Signal;HPM_P1;HPM_P2
2022/04/19 00:00:34;;;;;;;9.00;6.17;;;8.00;99.90;;;;;;5057226;28;20036;-74
2022/04/19 00:03:02;;;;;;;10.57;6.47;;;7.90;99.90;;;;;;5073169;28;20047;-75
2022/04/19 00:05:28;;;;;;;9.20;6.40;;;7.90;99.90;;;;;;5059603;28;20058;-74
2022/04/19 00:07:54;;;;;;;10.10;6.33;;;7.90;99.90;;;;;;5057160;28;20032;-75
2022/04/19 00:10:19;;;;;;;8.87;6.40;;;7.80;99.90;;;;;;5051681;28;20080;-74
2022/04/19 00:12:45;;;;;;;9.23;6.10;;;7.80;99.90;;;;;;5076147;28;20044;-75
2022/04/19 00:15:11;;;;;;;8.80;6.33;;;7.80;99.90;;;;;;5083662;28;20567;-75
2022/04/19 00:17:37;;;;;;;10.87;6.73;;;7.70;99.90;;;;;;5070801;28;20122;-75
2022/04/19 00:20:06;;;;;;;8.83;6.20;;;7.70;99.90;;;;;;5067405;28;20048;-75
2022/04/19 00:22:31;;;;;;;9.07;6.50;;;7.60;99.90;;;;;;5057510;28;20049;-74
2022/04/19 00:24:57;;;;;;;8.93;6.50;;;7.60;99.90;;;;;;5056057;28;21862;-75
2022/04/19 00:27:23;;;;;;;9.23;6.17;;;7.60;99.90;;;;;;5086431;28;20513;-75
2022/04/19 00:29:49;;;;;;;9.77;6.63;;;7.50;99.90;;;;;;5081539;28;20089;-74
2022/04/19 00:32:15;;;;;;;9.03;6.10;;;7.50;99.90;;;;;;5052685;28;20122;-74
2022/04/19 00:34:41;;;;;;;8.07;5.77;;;7.50;99.90;;;;;;5076733;28;20138;-74
2022/04/19 00:37:08;;;;;;;9.57;6.30;;;7.50;99.90;;;;;;5059532;28;20040;-74
2022/04/19 00:39:34;;;;;;;10.80;5.63;;;7.40;99.90;;;;;;5055207;28;20041;-75
2022/04/19 00:42:00;;;;;;;10.33;6.07;;;7.30;99.90;;;;;;5076029;28;20093;-74
2022/04/19 00:44:26;;;;;;;9.43;5.73;;;7.30;99.90;;;;;;5039605;28;20143;-74
2022/04/19 00:46:51;;;;;;;11.63;5.90;;;7.30;99.90;;;;;;5059301;28;20044;-74
2022/04/19 00:49:18;;;;;;;10.20;6.50;;;7.20;99.90;;;;;;5051963;28;20494;-74
2022/04/19 00:51:46;;;;;;;7.83;6.23;;;7.20;99.90;;;;;;5057128;28;20059;-74
2022/04/19 00:54:17;;;;;;;14.77;6.93;;;7.20;99.90;;;;;;5058095;28;20105;-74
2022/04/19 00:56:43;;;;;;;10.00;6.70;;;7.10;99.90;;;;;;5052483;28;20127;-74
2022/04/19 00:59:10;;;;;;;9.13;6.20;;;7.10;99.90;;;;;;5057537;28;20127;-74
2022/04/19 01:01:37;;;;;;;9.50;6.43;;;7.10;99.90;;;;;;5038919;28;20133;-76
2022/04/19 01:04:03;;;;;;;8.20;5.70;;;7.00;99.90;;;;;;5060823;28;20132;-74
2022/04/19 01:06:29;;;;;;;12.60;6.33;;;7.00;99.90;;;;;;5059080;28;20465;-74
2022/04/19 01:08:55;;;;;;;8.27;6.33;;;7.00;99.90;;;;;;5052258;28;20040;-74
2022/04/19 01:14:10;;;;;;;11.33;7.03;;;6.90;99.90;;;;;;5042894;28;20446;-74
2022/04/19 01:16:37;;;;;;;9.80;6.83;;;6.90;99.90;;;;;;5050340;28;20040;-75
2022/04/19 01:19:07;;;;;;;8.47;6.30;;;6.90;99.90;;;;;;5049024;28;20042;-75
2022/04/19 01:21:44;;;;;;;9.53;6.70;;;6.90;99.90;;;;;;5059638;28;20107;-74
2022/04/19 01:24:14;;;;;;;9.67;6.17;;;6.90;99.90;;;;;;5041456;28;20538;-75
2022/04/19 01:26:41;;;;;;;10.33;6.53;;;6.80;99.90;;;;;;5054206;28;20063;-74
2022/04/19 01:29:07;;;;;;;10.30;6.33;;;6.80;99.90;;;;;;5052042;28;20047;-74
2022/04/19 01:31:33;;;;;;;9.80;6.63;;;6.80;99.90;;;;;;5046709;28;20048;-75
2022/04/19 01:33:59;;;;;;;9.03;6.70;;;6.80;99.90;;;;;;5036601;28;20119;-75
2022/04/19 01:36:25;;;;;;;10.10;6.90;;;6.80;99.90;;;;;;5054898;28;20122;-74
2022/04/19 01:38:52;;;;;;;9.93;7.00;;;6.70;99.90;;;;;;5059959;28;20035;-72
2022/04/19 01:41:20;;;;;;;13.43;6.77;;;6.70;99.90;;;;;;5058143;28;20089;-73
2022/04/19 01:43:50;;;;;;;11.53;6.33;;;6.70;99.90;;;;;;5055087;28;20081;-73
2022/04/19 01:46:17;;;;;;;13.50;6.70;;;6.70;99.90;;;;;;5036839;28;20048;-73
2022/04/19 01:48:43;;;;;;;13.60;6.87;;;6.60;99.90;;;;;;5062718;28;20415;-73
2022/04/19 01:51:08;;;;;;;11.23;7.10;;;6.60;99.90;;;;;;5058868;28;20040;-73
2022/04/19 01:53:34;;;;;;;8.50;6.50;;;6.60;99.90;;;;;;5064821;28;20054;-73
2022/04/19 01:56:01;;;;;;;11.40;6.70;;;6.50;99.90;;;;;;5057660;28;20044;-72
2022/04/19 01:58:46;;;;;;;10.07;6.60;;;6.50;99.90;;;;;;5069092;28;20731;-73
2022/04/19 02:01:13;;;;;;;10.87;6.23;;;6.40;99.90;;;;;;5054546;28;20173;-73
2022/04/19 02:03:40;;;;;;;9.73;7.40;;;6.40;99.90;;;;;;5072393;28;20048;-72
2022/04/19 02:06:08;;;;;;;10.50;6.57;;;6.40;99.90;;;;;;5054012;28;20453;-73
2022/04/19 02:08:36;;;;;;;10.37;6.73;;;6.40;99.90;;;;;;5054313;28;20056;-72
2022/04/19 02:11:04;;;;;;;10.00;6.90;;;6.30;99.90;;;;;;5063532;28;20119;-72
2022/04/19 02:13:33;;;;;;;10.47;6.93;;;6.30;99.90;;;;;;5054202;28;20056;-73
2022/04/19 02:16:21;;;;;;;10.20;7.30;;;6.30;99.90;;;;;;5043018;28;20040;-72
2022/04/19 02:18:48;;;;;;;13.63;7.07;;;6.20;99.90;;;;;;5065988;28;20040;-73
2022/04/19 02:21:14;;;;;;;10.73;6.70;;;6.20;99.90;;;;;;5036368;28;20036;-72
2022/04/19 02:23:40;;;;;;;10.10;7.13;;;6.10;99.90;;;;;;5067040;28;20051;-73
2022/04/19 02:26:07;;;;;;;10.27;7.87;;;6.10;99.90;;;;;;5057489;28;20247;-73
2022/04/19 02:28:34;;;;;;;9.87;6.67;;;6.10;99.90;;;;;;5057055;28;20044;-73
2022/04/19 02:31:11;;;;;;;9.97;7.07;;;6.10;99.90;;;;;;5045051;28;20507;-72
2022/04/19 02:33:41;;;;;;;9.30;7.73;;;6.00;99.90;;;;;;5076879;28;20040;-73
2022/04/19 02:36:08;;;;;;;10.70;7.00;;;6.00;99.90;;;;;;5072474;28;20395;-73
2022/04/19 02:38:35;;;;;;;13.27;7.17;;;6.00;99.90;;;;;;5047493;28;20122;-72
2022/04/19 02:41:01;;;;;;;9.87;7.33;;;5.90;99.90;;;;;;5039923;28;20068;-72
2022/04/19 02:43:29;;;;;;;10.47;7.57;;;5.90;99.90;;;;;;5057203;28;20044;-73
2022/04/19 02:45:56;;;;;;;10.67;7.70;;;5.90;99.90;;;;;;5053192;28;20055;-73
2022/04/19 02:48:30;;;;;;;10.27;6.97;;;5.90;99.90;;;;;;5062653;28;20040;-72
2022/04/19 02:50:56;;;;;;;9.83;7.13;;;5.80;99.90;;;;;;5051749;28;20509;-72
2022/04/19 02:53:23;;;;;;;10.53;7.50;;;5.80;99.90;;;;;;5067370;28;20036;-73
2022/04/19 02:55:48;;;;;;;14.17;7.63;;;5.80;99.90;;;;;;5062452;28;20052;-72
2022/04/19 02:58:14;;;;;;;13.07;8.77;;;5.70;99.90;;;;;;5071871;28;20038;-72
2022/04/19 03:00:41;;;;;;;11.03;8.53;;;5.70;99.90;;;;;;5070409;28;20098;-72
2022/04/19 03:03:10;;;;;;;14.80;8.37;;;5.70;99.90;;;;;;5053872;28;20048;-73
2022/04/19 03:05:39;;;;;;;12.00;8.57;;;5.70;99.90;;;;;;5073633;28;20043;-72
2022/04/19 03:08:06;;;;;;;12.40;8.33;;;5.70;99.90;;;;;;5051746;28;20036;-72
2022/04/19 03:10:31;;;;;;;14.57;8.33;;;5.70;99.90;;;;;;5052870;28;20040;-72
2022/04/19 03:12:57;;;;;;;12.90;8.00;;;5.60;99.90;;;;;;5047323;28;20304;-72
2022/04/19 03:15:28;;;;;;;13.87;8.20;;;5.60;99.90;;;;;;5042071;28;20043;-72
2022/04/19 03:17:56;;;;;;;11.30;8.43;;;5.60;99.90;;;;;;5046204;28;20074;-72
2022/04/19 03:20:23;;;;;;;13.10;8.53;;;5.60;99.90;;;;;;5054901;28;20530;-73
2022/04/19 03:28:23;;;;;;;12.03;8.77;;;5.50;99.90;;;;;;5055946;28;20040;-72
2022/04/19 03:30:49;;;;;;;12.43;8.20;;;5.50;99.90;;;;;;5035079;28;20043;-73
2022/04/19 03:33:18;;;;;;;12.50;8.17;;;5.50;99.90;;;;;;5042456;28;20059;-72
2022/04/19 03:35:44;;;;;;;12.60;9.60;;;5.50;99.90;;;;;;5051268;28;20063;-72
2022/04/19 03:38:10;;;;;;;14.70;9.37;;;5.50;99.90;;;;;;5054567;28;20238;-72
2022/04/19 03:40:36;;;;;;;16.07;9.20;;;5.50;99.90;;;;;;5036683;28;20049;-72
2022/04/19 03:43:05;;;;;;;13.63;8.60;;;5.50;99.90;;;;;;5053098;28;20130;-72
2022/04/19 03:45:31;;;;;;;16.10;9.00;;;5.50;99.90;;;;;;5041453;28;20055;-73
2022/04/19 03:47:56;;;;;;;13.80;9.23;;;5.50;99.90;;;;;;5051539;28;20044;-73
2022/04/19 03:50:25;;;;;;;13.33;9.10;;;5.60;99.90;;;;;;5061467;28;20491;-72
2022/04/19 03:52:52;;;;;;;14.30;9.60;;;5.60;99.90;;;;;;5053886;28;20048;-72
2022/04/19 03:55:18;;;;;;;16.10;9.57;;;5.60;99.90;;;;;;5057307;28;20039;-72
2022/04/19 03:57:44;;;;;;;14.30;9.63;;;5.60;99.90;;;;;;5067528;28;20071;-72
2022/04/19 04:00:11;;;;;;;12.10;8.97;;;5.60;99.90;;;;;;5053732;28;20055;-72
2022/04/19 04:02:44;;;;;;;14.65;9.38;;;5.60;99.90;;;;;;5074741;28;20376;-72
2022/04/19 04:05:17;;;;;;;12.25;8.68;;;5.70;99.90;;;;;;5040057;28;20040;-72
2022/04/19 04:07:45;;;;;;;12.27;9.10;;;5.70;99.90;;;;;;5056990;28;20550;-73
2022/04/19 04:10:16;;;;;;;15.07;8.97;;;5.70;99.90;;;;;;5059289;28;20080;-72
2022/04/19 04:12:42;;;;;;;13.23;8.43;;;5.70;99.90;;;;;;5058146;28;20374;-72
2022/04/19 04:15:10;;;;;;;13.43;9.00;;;5.80;99.90;;;;;;5056171;28;20059;-73
2022/04/19 04:17:35;;;;;;;15.03;9.57;;;5.80;99.90;;;;;;5055013;28;20055;-72
2022/04/19 04:20:01;;;;;;;16.70;9.50;;;5.80;99.90;;;;;;5035441;28;20044;-72
2022/04/19 04:22:27;;;;;;;15.43;9.40;;;5.80;99.90;;;;;;5098325;28;20048;-72
2022/04/19 04:24:55;;;;;;;13.53;9.10;;;5.90;99.90;;;;;;5056643;28;20476;-72
2022/04/19 04:27:22;;;;;;;19.97;9.57;;;5.90;99.90;;;;;;5055288;28;20130;-72
2022/04/19 04:29:48;;;;;;;12.93;8.53;;;5.90;99.90;;;;;;5053371;28;20135;-72
2022/04/19 04:32:14;;;;;;;13.27;9.03;;;5.90;99.90;;;;;;5054298;28;20051;-72
2022/04/19 04:34:41;;;;;;;12.57;8.90;;;5.90;99.90;;;;;;5055568;28;20500;-72
2022/04/19 04:37:08;;;;;;;12.70;8.83;;;5.90;99.90;;;;;;5055389;28;20040;-72
2022/04/19 04:39:40;;;;;;;13.43;9.27;;;5.90;99.90;;;;;;5062925;28;20039;-72
2022/04/19 04:42:25;;;;;;;15.38;8.93;;;5.90;99.90;;;;;;5070041;28;20049;-72
2022/04/19 04:44:52;;;;;;;17.57;10.27;;;5.90;99.90;;;;;;5092091;28;20036;-72
2022/04/19 04:50:03;;;;;;;14.65;9.55;;;5.90;99.90;;;;;;5066695;28;20081;-72
2022/04/19 04:52:30;;;;;;;21.50;10.87;;;5.90;99.90;;;;;;5066894;28;20044;-72
2022/04/19 04:54:56;;;;;;;17.90;10.30;;;6.00;99.90;;;;;;5041810;28;20109;-72
2022/04/19 04:57:33;;;;;;;14.90;9.17;;;6.00;99.90;;;;;;5073256;28;20041;-72
2022/04/19 04:59:59;;;;;;;15.20;9.67;;;6.00;99.90;;;;;;5053134;28;20044;-72
2022/04/19 05:02:27;;;;;;;12.13;9.07;;;6.00;99.90;;;;;;5040618;28;20052;-72
2022/04/19 05:04:53;;;;;;;14.40;9.70;;;6.10;99.90;;;;;;5059622;28;20385;-72
2022/04/19 05:07:19;;;;;;;14.00;9.43;;;6.10;99.90;;;;;;5079108;28;20044;-72
2022/04/19 05:09:49;;;;;;;13.93;8.83;;;6.10;99.90;;;;;;5058793;28;20127;-72
2022/04/19 05:12:14;;;;;;;15.97;9.60;;;6.20;99.90;;;;;;5057114;28;20127;-72
2022/04/19 05:14:41;;;;;;;12.47;8.70;;;6.20;99.90;;;;;;5058339;28;20454;-72
2022/04/19 05:17:07;;;;;;;14.07;9.67;;;6.20;99.90;;;;;;5095097;28;20147;-72
2022/04/19 05:19:38;;;;;;;14.80;9.03;;;6.30;99.90;;;;;;5054207;28;20032;-72
2022/04/19 05:22:04;;;;;;;15.13;9.10;;;6.40;99.90;;;;;;5056536;28;20048;-72
2022/04/19 05:24:30;;;;;;;13.87;8.33;;;6.40;99.90;;;;;;5069686;28;20130;-72
2022/04/19 05:26:56;;;;;;;10.50;8.67;;;6.50;99.90;;;;;;5034593;28;20048;-72
2022/04/19 05:29:22;;;;;;;15.40;8.53;;;6.60;99.90;;;;;;5098461;28;20809;-73
2022/04/19 05:31:50;;;;;;;17.77;8.67;;;6.70;99.90;;;;;;5078352;28;20039;-72
2022/04/19 05:34:17;;;;;;;16.20;10.27;;;7.00;99.90;;;;;;5044225;28;20055;-72
2022/04/19 05:36:43;;;;;;;13.73;9.73;;;7.20;99.90;;;;;;5040941;28;20036;-72
2022/04/19 05:39:10;;;;;;;13.60;8.67;;;7.40;99.90;;;;;;5038392;28;20128;-72
2022/04/19 05:41:39;;;;;;;13.03;8.90;;;7.80;99.90;;;;;;5056441;28;20539;-72
2022/04/19 05:44:05;;;;;;;13.83;9.07;;;8.00;99.90;;;;;;5069300;28;20123;-72
2022/04/19 05:46:31;;;;;;;13.00;9.03;;;8.10;99.90;;;;;;5037494;28;20609;-72
2022/04/19 05:48:58;;;;;;;12.37;8.83;;;8.20;99.90;;;;;;5049356;28;20041;-72
2022/04/19 05:51:24;;;;;;;11.70;8.57;;;8.20;99.90;;;;;;5075766;28;20075;-72
2022/04/19 05:53:49;;;;;;;11.23;8.77;;;8.20;99.90;;;;;;5036851;28;20171;-73
2022/04/19 05:56:16;;;;;;;11.03;8.13;;;8.10;99.90;;;;;;5045129;28;20044;-72
2022/04/19 05:58:41;;;;;;;12.47;8.60;;;8.10;99.90;;;;;;5048255;28;20373;-73
2022/04/19 06:01:07;;;;;;;12.27;8.77;;;8.10;99.90;;;;;;5061151;28;20041;-72
2022/04/19 06:06:22;;;;;;;12.07;8.38;;;8.20;99.90;;;;;;5051524;28;20085;-73
2022/04/19 06:08:51;;;;;;;11.73;8.13;;;8.40;99.90;;;;;;5069571;28;20043;-72
2022/04/19 06:11:17;;;;;;;15.70;8.70;;;8.60;99.90;;;;;;5053938;28;20522;-72
2022/04/19 06:13:42;;;;;;;15.53;7.93;;;8.70;99.90;;;;;;5056624;28;20044;-72
2022/04/19 06:16:08;;;;;;;15.77;8.33;;;9.20;99.90;;;;;;5039900;28;20062;-73
2022/04/19 06:18:38;;;;;;;24.13;8.93;;;10.10;99.90;;;;;;5066764;28;20044;-72
2022/04/19 06:21:31;;;;;;;15.10;8.37;;;11.10;99.90;;;;;;5058770;28;20055;-72
2022/04/19 06:23:57;;;;;;;11.73;8.07;;;11.90;99.90;;;;;;5061106;28;20490;-72
2022/04/19 06:26:23;;;;;;;13.37;7.57;;;12.50;99.90;;;;;;5069019;28;20055;-72
2022/04/19 06:28:54;;;;;;;13.17;7.50;;;13.30;99.90;;;;;;5061215;28;20100;-72
2022/04/19 06:31:36;;;;;;;12.13;8.23;;;13.90;99.90;;;;;;5053113;28;20088;-73
2022/04/19 06:34:09;;;;;;;11.60;7.13;;;14.50;99.50;;;;;;5044275;28;20049;-73
2022/04/19 06:36:54;;;;;;;11.30;7.30;;;15.00;98.00;;;;;;5047570;28;20051;-73
2022/04/19 06:39:20;;;;;;;10.43;7.40;;;15.70;96.60;;;;;;5048239;28;20041;-72
2022/04/19 06:41:51;;;;;;;10.77;7.43;;;16.20;94.90;;;;;;5043894;28;20046;-72
2022/04/19 06:44:17;;;;;;;9.33;7.10;;;16.70;93.70;;;;;;5071700;28;20044;-73
2022/04/19 06:46:49;;;;;;;11.00;7.67;;;17.60;92.30;;;;;;5052167;28;20075;-74
2022/04/19 06:49:16;;;;;;;9.40;7.27;;;18.30;91.90;;;;;;5057893;28;20036;-73
2022/04/19 06:51:42;;;;;;;10.60;6.93;;;18.90;87.00;;;;;;5069872;28;20043;-73
2022/04/19 06:54:15;;;;;;;9.20;6.20;;;19.20;86.20;;;;;;5054541;28;20040;-73
2022/04/19 06:56:47;;;;;;;11.10;7.40;;;19.40;83.60;;;;;;5054721;28;20049;-73
2022/04/19 06:59:13;;;;;;;11.23;6.93;;;19.70;78.70;;;;;;5055078;28;20044;-73
2022/04/19 07:01:42;;;;;;;13.03;7.57;;;19.90;76.90;;;;;;5055339;28;20554;-74
2022/04/19 07:04:39;;;;;;;10.73;6.80;;;20.40;77.10;;;;;;5054221;28;20044;-74
2022/04/19 07:07:07;;;;;;;10.30;6.43;;;20.00;75.20;;;;;;5041206;28;20036;-74
2022/04/19 07:09:34;;;;;;;11.40;6.87;;;19.70;75.50;;;;;;5067900;28;20500;-74
2022/04/19 07:12:01;;;;;;;10.47;7.30;;;19.50;74.70;;;;;;5068923;28;20156;-73
2022/04/19 07:14:31;;;;;;;12.07;7.30;;;19.30;75.30;;;;;;5100366;28;20114;-74
2022/04/19 07:16:59;;;;;;;12.47;6.87;;;19.00;75.00;;;;;;5060138;28;20044;-74
2022/04/19 07:26:37;;;;;;;11.27;6.80;;;18.50;74.80;;;;;;5053247;28;20040;-73
2022/04/19 07:27:50;;;;;;;11.10;6.47;;;16.90;80.00;;;;;;5054905;28;20047;-74
2022/04/19 07:30:22;;;;;;;10.93;6.63;;;16.40;78.90;;;;;;5055255;28;20040;-73
2022/04/19 07:32:48;;;;;;;9.30;6.43;;;16.00;82.50;;;;;;5055201;28;20040;-74
2022/04/19 07:35:21;;;;;;;11.00;6.40;;;15.80;84.80;;;;;;5073495;22;20555;-75
2022/04/19 07:37:47;;;;;;;8.10;5.80;;;15.80;85.00;;;;;;5033674;28;20135;-74
2022/04/19 07:40:14;;;;;;;9.23;6.03;;;15.60;85.50;;;;;;5034731;28;20044;-74
2022/04/19 07:42:40;;;;;;;9.00;5.80;;;15.50;87.90;;;;;;5019152;28;20053;-75
2022/04/19 07:45:07;;;;;;;8.83;6.13;;;15.30;87.20;;;;;;5035296;28;20140;-74
2022/04/19 07:47:34;;;;;;;9.73;6.80;;;15.20;89.00;;;;;;5054024;28;20051;-75
2022/04/19 07:50:00;;;;;;;10.73;5.80;;;15.10;89.90;;;;;;5050064;28;20071;-73
2022/04/19 07:52:26;;;;;;;8.13;6.10;;;15.00;90.90;;;;;;5034847;28;20051;-74
2022/04/19 07:54:52;;;;;;;10.03;5.57;;;15.10;91.60;;;;;;5035874;28;20052;-74
2022/04/19 07:57:20;;;;;;;9.73;6.20;;;15.20;91.60;;;;;;5021961;28;20100;-73
2022/04/19 07:59:46;;;;;;;8.87;6.47;;;15.20;92.00;;;;;;5020070;28;20098;-73
2022/04/19 08:02:14;;;;;;;10.47;7.13;;;15.10;92.50;;;;;;5034988;28;20071;-74
2022/04/19 08:04:40;;;;;;;9.23;6.60;;;15.10;92.70;;;;;;5046670;28;20051;-75
2022/04/19 08:07:06;;;;;;;8.90;6.77;;;15.00;92.70;;;;;;5054727;28;20032;-74
2022/04/19 08:09:32;;;;;;;11.60;6.97;;;14.90;92.70;;;;;;5041034;28;20040;-73
2022/04/19 08:11:59;;;;;;;9.40;7.50;;;14.90;94.20;;;;;;5057517;28;20048;-73
2022/04/19 08:14:26;;;;;;;12.90;7.50;;;14.90;95.50;;;;;;5056727;28;20042;-74
2022/04/19 08:16:52;;;;;;;8.13;6.40;;;14.90;95.80;;;;;;5074298;28;20044;-73
2022/04/19 08:19:17;;;;;;;9.90;6.40;;;14.90;95.30;;;;;;5090241;28;20097;-73
2022/04/19 08:21:45;;;;;;;11.17;6.43;;;14.90;95.20;;;;;;5053322;28;20481;-73
2022/04/19 08:24:12;;;;;;;10.27;6.70;;;14.80;94.10;;;;;;5053601;28;20507;-74
2022/04/19 08:26:39;;;;;;;11.93;6.70;;;14.80;95.00;;;;;;5038991;28;20040;-74
2022/04/19 08:29:06;;;;;;;10.00;6.90;;;14.90;96.00;;;;;;5040554;28;20100;-74
2022/04/19 08:31:34;;;;;;;10.13;6.93;;;15.00;96.80;;;;;;5044177;28;20054;-73
2022/04/19 08:34:01;;;;;;;10.90;6.90;;;15.10;96.50;;;;;;5062476;28;20525;-74
2022/04/19 08:36:27;;;;;;;8.07;6.57;;;15.40;97.20;;;;;;5055942;28;20040;-74
2022/04/19 08:38:52;;;;;;;9.20;6.50;;;15.60;95.20;;;;;;5052257;28;20058;-73
2022/04/19 08:41:21;;;;;;;13.30;6.43;;;15.80;94.50;;;;;;5060698;28;20043;-73
2022/04/19 08:43:47;;;;;;;9.33;6.57;;;16.00;95.00;;;;;;5077535;28;20163;-73
2022/04/19 08:46:14;;;;;;;10.60;6.40;;;16.40;93.20;;;;;;5076747;28;20700;-74
2022/04/19 08:48:42;;;;;;;8.70;5.77;;;17.00;94.00;;;;;;5041790;28;20170;-74
2022/04/19 08:51:10;;;;;;;8.13;5.70;;;17.70;92.80;;;;;;5074644;28;20131;-74
2022/04/19 08:59:07;;;;;;;7.50;4.10;;;18.80;81.60;;;;;;5038880;28;20407;-74
2022/04/19 09:01:35;;;;;;;6.27;3.57;;;19.00;76.60;;;;;;5054839;28;20044;-73
2022/04/19 09:04:04;;;;;;;5.53;3.63;;;19.10;73.10;;;;;;5057228;28;20041;-74
2022/04/19 09:06:48;;;;;;;5.53;3.70;;;19.30;76.70;;;;;;5068581;28;20128;-74
2022/04/19 09:09:14;;;;;;;;;;;19.70;71.70;;;;;;5071629;28;20040;-74
2022/04/19 09:11:40;;;;;;;5.57;3.00;;;19.60;68.00;;;;;;5090176;28;20409;-75
2022/04/19 09:14:06;;;;;;;4.43;2.70;;;19.40;62.80;;;;;;5054438;28;20353;-73
2022/04/19 09:16:32;;;;;;;5.00;2.70;;;19.00;59.40;;;;;;5071254;28;20558;-75
2022/04/19 09:18:58;;;;;;;5.47;2.90;;;18.70;58.30;;;;;;5038418;28;20090;-74
2022/04/19 09:21:36;;;;;;;6.10;3.10;;;18.50;60.60;;;;;;5058013;28;20311;-74
2022/04/19 09:24:02;;;;;;;4.10;3.00;;;18.30;59.60;;;;;;5057994;28;20036;-74
2022/04/19 09:26:42;;;;;;;6.00;2.97;;;18.30;61.50;;;;;;5070475;28;20165;-74
2022/04/19 09:29:18;;;;;;;4.43;2.60;;;18.50;58.40;;;;;;5070226;28;20040;-74
2022/04/19 09:31:45;;;;;;;4.40;2.93;;;18.60;60.40;;;;;;5058053;28;20272;-73
2022/04/19 09:34:21;;;;;;;5.20;2.97;;;19.00;58.60;;;;;;5061068;28;20070;-74
2022/04/19 09:36:53;;;;;;;5.03;2.50;;;19.60;57.40;;;;;;5037610;28;20051;-75
2022/04/19 09:39:27;;;;;;;3.20;2.37;;;20.40;54.50;;;;;;5037337;28;20052;-75
2022/04/19 09:42:00;;;;;;;3.67;2.20;;;21.00;51.70;;;;;;5036956;28;20036;-75
2022/04/19 09:44:26;;;;;;;4.75;1.88;;;21.50;48.50;;;;;;5072356;28;20044;-74
2022/04/19 09:47:01;;;;;;;2.53;1.70;;;22.10;47.70;;;;;;5067537;28;20051;-76
2022/04/19 09:49:41;;;;;;;2.93;2.00;;;22.60;45.80;;;;;;5058365;28;20109;-76
2022/04/19 09:52:08;;;;;;;3.67;1.63;;;22.90;43.40;;;;;;5059344;28;20070;-74
2022/04/19 09:54:34;;;;;;;2.93;1.90;;;23.60;41.90;;;;;;5070504;28;20060;-76
2022/04/19 09:57:07;;;;;;;3.77;2.00;;;23.80;40.70;;;;;;5044669;28;20044;-75
2022/04/19 09:59:38;;;;;;;3.05;1.90;;;23.70;37.20;;;;;;5070608;28;20048;-75
2022/04/19 10:10:20;;;;;;;4.67;2.00;;;24.60;40.90;;;;;;5063164;28;20507;-74
2022/04/19 10:12:46;;;;;;;2.73;1.93;;;24.80;36.90;;;;;;5060659;28;20045;-75
2022/04/19 10:15:12;;;;;;;3.93;1.80;;;24.80;37.30;;;;;;5049415;28;20371;-75
2022/04/19 10:17:39;;;;;;;4.60;2.13;;;25.30;38.40;;;;;;5063490;28;20044;-75
2022/04/19 10:20:06;;;;;;;5.30;2.03;;;25.60;36.20;;;;;;5080820;28;20037;-74
2022/04/19 10:22:33;;;;;;;4.43;2.00;;;25.50;37.20;;;;;;5081899;28;20040;-74
2022/04/19 10:25:02;;;;;;;3.30;1.80;;;25.50;37.50;;;;;;5083969;28;20044;-73
2022/04/19 10:27:32;;;;;;;3.70;2.00;;;25.40;38.20;;;;;;5078881;28;20053;-75
2022/04/19 10:29:58;;;;;;;6.00;1.90;;;25.30;36.30;;;;;;5063633;28;20040;-74
2022/04/19 10:32:33;;;;;;;3.00;1.97;;;24.60;37.40;;;;;;5068699;28;20459;-74
2022/04/19 10:35:00;;;;;;;2.50;1.60;;;24.50;37.30;;;;;;5060859;28;20073;-76
2022/04/19 10:37:26;;;;;;;3.57;2.00;;;24.60;38.60;;;;;;5082983;28;20059;-74
2022/04/19 10:40:04;;;;;;;5.13;2.00;;;24.90;37.30;;;;;;5064974;28;20373;-72
2022/04/19 10:42:32;;;;;;;3.87;1.60;;;24.70;37.10;;;;;;5069906;28;20039;-74
2022/04/19 10:45:19;;;;;;;5.73;1.70;;;24.50;38.60;;;;;;5052335;28;20047;-74
2022/04/19 10:48:04;;;;;;;1.87;1.50;;;24.80;37.10;;;;;;5068105;28;20036;-75
2022/04/19 10:50:33;;;;;;;1.97;1.47;;;24.80;38.60;;;;;;5056404;28;20044;-74
2022/04/19 10:53:00;;;;;;;4.13;1.60;;;24.50;36.20;;;;;;5057491;28;20044;-75
2022/04/19 10:55:28;;;;;;;4.27;1.90;;;23.90;35.70;;;;;;5069652;28;20091;-75
2022/04/19 10:58:12;;;;;;;10.80;2.37;;;23.30;36.10;;;;;;5055725;28;20411;-74
2022/04/19 11:00:43;;;;;;;2.30;1.70;;;23.30;39.00;;;;;;5056893;28;20047;-74
2022/04/19 11:03:11;;;;;;;2.07;1.80;;;23.10;38.80;;;;;;5073373;28;20072;-75
2022/04/19 11:05:41;;;;;;;2.83;1.90;;;23.00;38.10;;;;;;5102216;28;20048;-74
2022/04/19 11:08:32;;;;;;;2.40;1.63;;;23.20;38.50;;;;;;5079056;28;20077;-73
2022/04/19 11:11:23;;;;;;;4.83;1.73;;;23.30;39.00;;;;;;5069663;28;20075;-75
2022/04/19 11:14:26;;;;;;;6.00;1.93;;;23.40;40.40;;;;;;5077708;28;20511;-73
2022/04/19 11:17:17;;;;;;;5.67;1.80;;;23.40;40.70;;;;;;5087371;28;20043;-73
2022/04/19 11:19:53;;;;;;;3.30;1.87;;;23.00;38.10;;;;;;5088091;28;20052;-74
2022/04/19 11:22:29;;;;;;;4.00;1.80;;;23.10;41.30;;;;;;5093572;28;20044;-74
2022/04/19 11:25:03;;;;;;;5.63;1.60;;;23.40;39.10;;;;;;5099299;28;20075;-73
2022/04/19 11:28:02;;;;;;;3.20;1.77;;;23.60;40.70;;;;;;5079019;28;20114;-74
2022/04/19 11:30:29;;;;;;;5.70;1.60;;;23.70;39.50;;;;;;5041111;28;20056;-74
2022/04/19 11:32:56;;;;;;;4.10;1.77;;;23.70;39.50;;;;;;5086062;28;20054;-75
2022/04/19 11:35:26;;;;;;;2.60;1.90;;;23.50;38.70;;;;;;5101517;28;20109;-76
2022/04/19 11:37:52;;;;;;;6.00;2.33;;;23.40;40.00;;;;;;5074501;28;20078;-74
2022/04/19 11:48:38;;;;;;;2.60;1.90;;;23.20;39.10;;;;;;5070172;28;20041;-76
2022/04/19 11:51:09;;;;;;;3.70;1.73;;;23.20;40.50;;;;;;5038700;28;20070;-74
2022/04/19 11:53:36;;;;;;;2.70;1.80;;;23.10;38.60;;;;;;5031675;28;22014;-73
2022/04/19 11:56:03;;;;;;;3.83;1.53;;;23.00;40.50;;;;;;5066058;28;20467;-73
2022/04/19 11:58:29;;;;;;;5.70;1.83;;;23.10;40.00;;;;;;5039769;28;20224;-75
2022/04/19 12:00:56;;;;;;;4.60;2.50;;;23.20;40.10;;;;;;5032362;28;20039;-75
2022/04/19 12:03:27;;;;;;;3.67;2.40;;;23.00;40.10;;;;;;5057829;28;20136;-74
2022/04/19 12:05:53;;;;;;;4.53;2.10;;;22.80;40.20;;;;;;5078304;28;20040;-73
2022/04/19 12:08:33;;;;;;;3.77;2.17;;;22.50;39.40;;;;;;5053434;28;20049;-74
2022/04/19 12:11:00;;;;;;;3.33;1.90;;;22.30;41.00;;;;;;5075414;28;20122;-74
2022/04/19 12:13:26;;;;;;;4.07;2.20;;;22.30;40.70;;;;;;5077497;28;20066;-74
2022/04/19 12:15:52;;;;;;;3.20;2.23;;;22.50;43.20;;;;;;5050397;28;20040;-73
2022/04/19 12:18:30;;;;;;;2.90;2.33;;;22.50;40.00;;;;;;5074152;28;20070;-74
2022/04/19 12:20:56;;;;;;;4.53;2.50;;;22.10;40.30;;;;;;5080549;28;20066;-74
2022/04/19 12:23:22;;;;;;;3.07;2.13;;;21.90;41.30;;;;;;5072658;28;20032;-74
2022/04/19 12:26:00;;;;;;;5.30;2.60;;;21.80;41.20;;;;;;5065378;28;20048;-75
2022/04/19 12:28:38;;;;;;;6.33;2.33;;;22.00;43.30;;;;;;5099522;28;20048;-74
2022/04/19 12:31:04;;;;;;;3.97;2.70;;;22.10;41.90;;;;;;5058393;28;20124;-75
2022/04/19 12:33:30;;;;;;;5.83;2.70;;;21.80;43.20;;;;;;5083119;28;20292;-74
2022/04/19 12:35:56;;;;;;;5.63;2.90;;;22.00;43.50;;;;;;5084893;28;20051;-74
2022/04/19 12:38:29;;;;;;;5.10;2.80;;;22.00;42.40;;;;;;5085581;28;20035;-73
2022/04/19 12:40:54;;;;;;;5.63;2.90;;;22.10;43.90;;;;;;5054201;28;20138;-74
2022/04/19 12:43:41;;;;;;;3.73;2.60;;;22.10;43.30;;;;;;5080979;28;20067;-75
2022/04/19 12:46:07;;;;;;;8.50;2.40;;;21.90;41.20;;;;;;5076625;28;20039;-74
2022/04/19 12:48:33;;;;;;;8.23;2.73;;;21.60;42.10;;;;;;5057960;28;20040;-74
2022/04/19 12:51:00;;;;;;;5.07;2.23;;;21.30;42.70;;;;;;5047608;28;20079;-73
2022/04/19 12:53:26;;;;;;;4.00;2.60;;;21.20;41.80;;;;;;5066160;28;20041;-73
2022/04/19 12:55:51;;;;;;;3.07;2.10;;;21.10;41.90;;;;;;5049368;28;20528;-77
2022/04/19 12:58:17;;;;;;;6.20;2.30;;;21.30;45.00;;;;;;5078956;28;20062;-76
2022/04/19 13:00:44;;;;;;;2.50;2.10;;;21.60;43.70;;;;;;5071633;28;20036;-73
2022/04/19 13:03:10;;;;;;;6.87;2.30;;;21.80;44.60;;;;;;5060832;28;20059;-73
2022/04/19 13:13:48;;;;;;;7.17;1.80;;;21.70;41.10;;;;;;5076550;28;20048;-74
2022/04/19 13:16:17;;;;;;;3.10;2.20;;;21.50;42.30;;;;;;5079437;28;20043;-72
2022/04/19 13:18:42;;;;;;;5.27;2.40;;;21.50;41.90;;;;;;5061398;28;20102;-73
2022/04/19 13:21:08;;;;;;;4.30;1.97;;;21.30;41.80;;;;;;5070124;28;20448;-74
2022/04/19 13:23:34;;;;;;;3.40;1.97;;;21.10;42.50;;;;;;5096496;28;20063;-73
2022/04/19 13:26:00;;;;;;;3.37;2.10;;;21.00;43.20;;;;;;5045460;28;20040;-74
2022/04/19 13:28:27;;;;;;;3.43;2.13;;;21.20;44.20;;;;;;5055954;28;20036;-73
2022/04/19 13:30:53;;;;;;;4.90;2.60;;;21.30;43.60;;;;;;5053465;28;20064;-73
2022/04/19 13:33:20;;;;;;;4.27;2.17;;;21.30;43.90;;;;;;5053794;28;20075;-73
2022/04/19 13:35:46;;;;;;;4.40;2.33;;;21.30;44.40;;;;;;5077809;28;20048;-74
2022/04/19 13:38:24;;;;;;;4.33;1.97;;;21.20;43.70;;;;;;5055857;28;20193;-74
2022/04/19 13:40:50;;;;;;;6.50;2.37;;;21.20;44.00;;;;;;5079291;28;20043;-75
2022/04/19 13:43:16;;;;;;;2.77;1.90;;;21.10;44.80;;;;;;5078632;28;20166;-74
2022/04/19 13:45:42;;;;;;;4.27;2.30;;;21.10;44.10;;;;;;5077004;28;20075;-72